Time;durP1;ratioP1;P1;durP2;ratioP2;P2;SDS_P1;SDS_P2;PMS_P1;PMS_P2;Temp;Humidity;BMP_temperature;BMP_pressure;BME280_temperature;BME280_humidity;BME280_pressure;Samples;Min_cycle;Max_cycle;Signal;HPM_P1;HPM_P2
2023/04/22 00:00:13;;;;;;;12.20;10.73;;;;;;;;;;5048060;28;20088;-67
2023/04/22 00:02:39;;;;;;;14.02;10.55;;;;;;;;;;5046808;28;20552;-67
2023/04/22 00:05:06;;;;;;;13.95;11.50;;;;;;;;;;5048120;28;20029;-67
2023/04/22 00:07:31;;;;;;;15.80;11.68;;;;;;;;;;5049911;28;20035;-67
2023/04/22 00:09:57;;;;;;;12.68;11.35;;;;;;;;;;5045848;28;20033;-67
2023/04/22 00:12:23;;;;;;;15.13;10.63;;;;;;;;;;5047248;28;20084;-67
2023/04/22 00:14:48;;;;;;;13.23;11.75;;;;;;;;;;5049588;28;20092;-67
2023/04/22 00:17:14;;;;;;;10.80;9.70;;;;;;;;;;5050744;28;20037;-67
2023/04/22 00:19:40;;;;;;;13.30;10.70;;;;;;;;;;5043849;28;20085;-67
2023/04/22 00:22:06;;;;;;;14.27;10.23;;;;;;;;;;5049932;28;20052;-68
2023/04/22 00:24:32;;;;;;;12.15;10.88;;;;;;;;;;5048248;28;20040;-67
2023/04/22 00:26:57;;;;;;;10.98;9.55;;;;;;;;;;5046003;28;20036;-67
2023/04/22 00:29:26;;;;;;;13.25;10.20;;;;;;;;;;5049562;28;20037;-67
2023/04/22 00:31:51;;;;;;;16.23;10.30;;;;;;;;;;5050302;28;20508;-67
2023/04/22 00:34:17;;;;;;;13.60;10.57;;;;;;;;;;5051689;28;20025;-68
2023/04/22 00:36:43;;;;;;;11.82;9.98;;;;;;;;;;5046936;28;20031;-65
2023/04/22 00:39:09;;;;;;;12.27;10.32;;;;;;;;;;5049802;28;20033;-67
2023/04/22 00:41:35;;;;;;;13.20;10.93;;;;;;;;;;5048680;28;20731;-67
2023/04/22 00:44:00;;;;;;;12.10;10.93;;;;;;;;;;5046739;28;20051;-67
2023/04/22 00:46:26;;;;;;;12.88;11.27;;;;;;;;;;5048667;28;20098;-67
2023/04/22 00:48:52;;;;;;;12.77;10.52;;;;;;;;;;5050378;28;20029;-67
2023/04/22 00:51:17;;;;;;;12.48;10.88;;;;;;;;;;5055493;28;20041;-67
2023/04/22 00:53:43;;;;;;;12.30;11.00;;;;;;;;;;5046561;28;20040;-67
2023/04/22 00:56:10;;;;;;;13.73;11.77;;;;;;;;;;5047157;28;20060;-67
2023/04/22 00:58:35;;;;;;;12.90;11.02;;;;;;;;;;5045767;28;20040;-67
2023/04/22 01:01:01;;;;;;;14.65;11.02;;;;;;;;;;5043335;28;20090;-67
2023/04/22 01:03:29;;;;;;;14.57;11.13;;;;;;;;;;5043836;28;20400;-67
2023/04/22 01:05:55;;;;;;;13.75;10.65;;;;;;;;;;5048001;28;20033;-67
2023/04/22 01:08:21;;;;;;;13.95;11.18;;;;;;;;;;5045710;28;20073;-67
2023/04/22 01:10:46;;;;;;;13.52;11.05;;;;;;;;;;5045060;28;20041;-66
2023/04/22 01:13:12;;;;;;;12.38;10.95;;;;;;;;;;5045030;28;20040;-68
2023/04/22 01:15:37;;;;;;;11.20;9.90;;;;;;;;;;5045814;28;20032;-66
2023/04/22 01:18:03;;;;;;;12.40;10.52;;;;;;;;;;5046447;28;20622;-66
2023/04/22 01:20:29;;;;;;;11.43;10.23;;;;;;;;;;5044655;28;20063;-66
2023/04/22 01:22:56;;;;;;;13.23;10.70;;;;;;;;;;5041830;28;20036;-66
2023/04/22 01:25:26;;;;;;;11.23;10.05;;;;;;;;;;5049761;28;20036;-66
2023/04/22 01:27:53;;;;;;;10.73;9.63;;;;;;;;;;5044115;28;20052;-66
2023/04/22 01:30:19;;;;;;;13.20;9.93;;;;;;;;;;5047379;28;20060;-67
2023/04/22 01:32:45;;;;;;;13.25;9.85;;;;;;;;;;5043285;28;20039;-68
2023/04/22 01:35:11;;;;;;;15.48;10.23;;;;;;;;;;5044635;28;20064;-66
2023/04/22 01:37:37;;;;;;;10.27;8.70;;;;;;;;;;5044248;28;20032;-65
2023/04/22 01:40:03;;;;;;;10.73;9.63;;;;;;;;;;5043428;28;20036;-67
2023/04/22 01:42:29;;;;;;;12.60;10.13;;;;;;;;;;5048579;28;20694;-67
2023/04/22 01:44:55;;;;;;;10.52;9.45;;;;;;;;;;5044043;28;20038;-67
2023/04/22 01:47:21;;;;;;;12.50;9.80;;;;;;;;;;5044303;28;20064;-67
2023/04/22 01:49:46;;;;;;;11.40;10.25;;;;;;;;;;5046166;28;20040;-66
2023/04/22 01:52:12;;;;;;;12.48;10.13;;;;;;;;;;5049231;28;20029;-67
2023/04/22 01:54:40;;;;;;;11.63;9.65;;;;;;;;;;5042272;28;20061;-65
2023/04/22 01:57:10;;;;;;;11.30;10.10;;;;;;;;;;5030183;28;20037;-67
2023/04/22 01:59:35;;;;;;;11.40;10.30;;;;;;;;;;5046397;28;20037;-67
2023/04/22 02:02:01;;;;;;;10.68;9.60;;;;;;;;;;5046963;28;20116;-65
2023/04/22 02:04:27;;;;;;;10.80;9.70;;;;;;;;;;5045111;28;20040;-68
2023/04/22 02:06:52;;;;;;;12.15;9.75;;;;;;;;;;5049227;28;20039;-66
2023/04/22 02:09:18;;;;;;;10.05;9.05;;;;;;;;;;5046211;28;20057;-66
2023/04/22 02:11:43;;;;;;;11.15;10.05;;;;;;;;;;5050166;28;20547;-67
2023/04/22 02:14:09;;;;;;;10.85;8.30;;;;;;;;;;5032610;28;20033;-67
2023/04/22 02:16:34;;;;;;;9.00;8.10;;;;;;;;;;5053341;28;20040;-66
2023/04/22 02:19:00;;;;;;;10.23;9.02;;;;;;;;;;5049417;28;20092;-66
2023/04/22 02:21:28;;;;;;;11.88;9.00;;;;;;;;;;5050969;28;20186;-67
2023/04/22 02:23:54;;;;;;;9.53;8.50;;;;;;;;;;5048302;28;20037;-66
2023/04/22 02:26:19;;;;;;;9.73;8.70;;;;;;;;;;5050461;28;20349;-67
2023/04/22 02:28:45;;;;;;;9.75;8.45;;;;;;;;;;5065438;28;20392;-67
2023/04/22 02:31:11;;;;;;;9.95;8.15;;;;;;;;;;5049541;28;20388;-67
2023/04/22 02:33:39;;;;;;;11.30;9.00;;;;;;;;;;5047565;28;20035;-67
2023/04/22 02:36:07;;;;;;;9.00;8.10;;;;;;;;;;5041225;28;20048;-67
2023/04/22 02:38:33;;;;;;;9.40;8.50;;;;;;;;;;5055686;28;20056;-68
2023/04/22 02:40:59;;;;;;;11.27;7.93;;;;;;;;;;5054564;28;20040;-67
2023/04/22 02:43:24;;;;;;;8.38;7.57;;;;;;;;;;5046387;28;20063;-68
2023/04/22 02:45:50;;;;;;;8.10;7.30;;;;;;;;;;5045500;28;20643;-67
2023/04/22 02:48:16;;;;;;;8.57;7.78;;;;;;;;;;5051370;28;20166;-65
2023/04/22 02:50:42;;;;;;;9.02;7.97;;;;;;;;;;5051545;28;20056;-67
2023/04/22 02:53:08;;;;;;;7.85;7.15;;;;;;;;;;5056355;28;20110;-67
2023/04/22 02:55:34;;;;;;;8.02;7.22;;;;;;;;;;5042617;28;20562;-67
2023/04/22 02:57:59;;;;;;;10.18;8.32;;;;;;;;;;5048348;28;20162;-67
2023/04/22 03:00:25;;;;;;;11.15;8.02;;;;;;;;;;5048339;28;20037;-67
2023/04/22 03:02:51;;;;;;;8.88;7.97;;;;;;;;;;5046866;28;20036;-67
2023/04/22 03:05:20;;;;;;;9.07;8.25;;;;;;;;;;5049501;28;20070;-67
2023/04/22 03:07:46;;;;;;;8.52;7.70;;;;;;;;;;5051018;28;20045;-67
2023/04/22 03:10:14;;;;;;;8.73;7.85;;;;;;;;;;5046812;28;20045;-67
2023/04/22 03:12:40;;;;;;;8.63;7.80;;;;;;;;;;5047770;28;20032;-67
2023/04/22 03:15:06;;;;;;;9.38;7.80;;;;;;;;;;5049030;28;20420;-67
2023/04/22 03:17:32;;;;;;;8.25;7.45;;;;;;;;;;5033092;28;20120;-67
2023/04/22 03:20:00;;;;;;;8.32;7.53;;;;;;;;;;5046425;28;20132;-66
2023/04/22 03:22:26;;;;;;;9.02;8.13;;;;;;;;;;5041170;28;20546;-66
2023/04/22 03:24:55;;;;;;;11.07;8.70;;;;;;;;;;5047458;28;20038;-66
2023/04/22 03:27:20;;;;;;;9.80;8.88;;;;;;;;;;5047846;28;20040;-66
2023/04/22 03:29:46;;;;;;;10.32;8.63;;;;;;;;;;5032758;28;20060;-66
2023/04/22 03:32:12;;;;;;;9.95;8.93;;;;;;;;;;5028683;28;20159;-66
2023/04/22 03:34:38;;;;;;;11.75;9.48;;;;;;;;;;5027919;28;20123;-66
2023/04/22 03:37:06;;;;;;;10.67;8.47;;;;;;;;;;5050212;28;20037;-67
2023/04/22 03:39:32;;;;;;;9.40;8.50;;;;;;;;;;5051134;28;20650;-67
2023/04/22 03:41:57;;;;;;;9.90;8.98;;;;;;;;;;5047287;28;20041;-67
2023/04/22 03:44:24;;;;;;;10.52;9.13;;;;;;;;;;5050337;28;20048;-67
2023/04/22 03:46:50;;;;;;;10.98;8.38;;;;;;;;;;5050418;28;20033;-67
2023/04/22 03:49:20;;;;;;;10.93;9.07;;;;;;;;;;5049250;28;20044;-67
2023/04/22 03:51:47;;;;;;;9.88;8.88;;;;;;;;;;5046471;28;20466;-67
2023/04/22 03:54:16;;;;;;;9.10;8.20;;;;;;;;;;5051485;28;20028;-67
2023/04/22 03:56:47;;;;;;;10.70;9.70;;;;;;;;;;5048612;28;20029;-67
2023/04/22 03:59:13;;;;;;;10.55;8.68;;;;;;;;;;5066905;28;20154;-67
2023/04/22 04:01:39;;;;;;;10.20;8.15;;;;;;;;;;5047268;28;20119;-66
2023/04/22 04:04:07;;;;;;;11.93;9.60;;;;;;;;;;5049420;28;20052;-66
2023/04/22 04:06:38;;;;;;;11.98;9.25;;;;;;;;;;5050497;28;20041;-65
2023/04/22 04:09:04;;;;;;;10.80;9.25;;;;;;;;;;5044099;28;20133;-65
2023/04/22 04:11:31;;;;;;;11.05;9.60;;;;;;;;;;5047531;28;20036;-65
2023/04/22 04:13:58;;;;;;;13.48;9.57;;;;;;;;;;5048283;28;20171;-66
2023/04/22 04:16:29;;;;;;;11.90;10.40;;;;;;;;;;5048188;28;20037;-65
2023/04/22 04:19:02;;;;;;;11.18;10.10;;;;;;;;;;5063950;28;20044;-65
2023/04/22 04:21:32;;;;;;;11.40;9.80;;;;;;;;;;5049997;28;20507;-64
2023/04/22 04:23:58;;;;;;;16.60;11.45;;;;;;;;;;5047732;28;20036;-65
2023/04/22 04:26:27;;;;;;;;;;;;;;;;;;5047306;28;20047;-65
2023/04/22 04:29:02;;;;;;;13.52;10.88;;;;;;;;;;5019517;28;19913;-65
2023/04/22 04:31:28;;;;;;;12.77;11.15;;;;;;;;;;5045784;28;20033;-64
2023/04/22 04:33:56;;;;;;;11.95;10.75;;;;;;;;;;5050249;28;20078;-64
2023/04/22 04:36:27;;;;;;;11.57;10.18;;;;;;;;;;5028735;28;20593;-65
2023/04/22 04:38:55;;;;;;;11.27;10.07;;;;;;;;;;5039371;28;20087;-65
2023/04/22 04:41:22;;;;;;;13.23;10.60;;;;;;;;;;5046182;28;20044;-65
2023/04/22 04:43:49;;;;;;;13.70;10.68;;;;;;;;;;5045530;28;20043;-65
2023/04/22 04:46:28;;;;;;;14.07;12.30;;;;;;;;;;5042975;28;20044;-65
2023/04/22 04:48:54;;;;;;;13.77;11.35;;;;;;;;;;5046238;28;20033;-65
2023/04/22 04:51:21;;;;;;;14.13;11.77;;;;;;;;;;5046291;28;20041;-65
2023/04/22 04:53:51;;;;;;;15.63;10.73;;;;;;;;;;5026046;28;20052;-64
2023/04/22 04:56:16;;;;;;;16.35;10.90;;;;;;;;;;5066906;28;20037;-64
2023/04/22 04:58:43;;;;;;;13.55;11.55;;;;;;;;;;5045563;28;20497;-64
2023/04/22 05:01:21;;;;;;;10.88;9.77;;;;;;;;;;5044447;28;20036;-65
2023/04/22 05:03:47;;;;;;;12.35;10.48;;;;;;;;;;5048635;28;20045;-65
2023/04/22 05:06:15;;;;;;;13.43;10.50;;;;;;;;;;5046428;28;20029;-65
2023/04/22 05:08:46;;;;;;;10.95;9.85;;;;;;;;;;5044005;28;20087;-65
2023/04/22 05:11:12;;;;;;;11.52;10.13;;;;;;;;;;5047018;28;20036;-66
2023/04/22 05:13:38;;;;;;;11.82;10.63;;;;;;;;;;5046391;28;20033;-65
2023/04/22 05:16:06;;;;;;;15.50;10.18;;;;;;;;;;5046350;28;20160;-66
2023/04/22 05:18:32;;;;;;;11.18;9.93;;;;;;;;;;5043510;28;20057;-65
2023/04/22 05:21:03;;;;;;;11.27;9.70;;;;;;;;;;5045870;28;20529;-65
2023/04/22 05:23:29;;;;;;;10.75;9.68;;;;;;;;;;5045643;28;21528;-65
2023/04/22 05:25:57;;;;;;;11.25;9.77;;;;;;;;;;5049363;28;20037;-65
2023/04/22 05:28:23;;;;;;;11.25;10.10;;;;;;;;;;5040966;28;20118;-65
2023/04/22 05:30:53;;;;;;;11.50;10.30;;;;;;;;;;5045631;28;20065;-64
2023/04/22 05:33:19;;;;;;;12.40;9.65;;;;;;;;;;5043368;28;20529;-64
2023/04/22 05:35:44;;;;;;;10.13;9.13;;;;;;;;;;5045615;28;20068;-64
2023/04/22 05:38:10;;;;;;;9.93;8.98;;;;;;;;;;5045419;28;20056;-66
2023/04/22 05:40:39;;;;;;;10.95;9.85;;;;;;;;;;5045710;28;20033;-66
2023/04/22 05:43:05;;;;;;;10.65;9.10;;;;;;;;;;5025960;28;20036;-65
2023/04/22 05:45:31;;;;;;;11.10;9.90;;;;;;;;;;5044255;28;20136;-65
2023/04/22 05:47:57;;;;;;;11.80;9.75;;;;;;;;;;5030989;28;20057;-65
2023/04/22 05:50:25;;;;;;;11.45;9.27;;;;;;;;;;5049956;28;20527;-65
2023/04/22 05:52:57;;;;;;;11.02;9.23;;;;;;;;;;5047645;28;20037;-65
2023/04/22 05:55:22;;;;;;;12.07;10.63;;;;;;;;;;5034111;28;20039;-64
2023/04/22 05:57:49;;;;;;;13.48;10.35;;;;;;;;;;5050415;28;20036;-65
2023/04/22 06:00:26;;;;;;;11.15;9.55;;;;;;;;;;5053541;28;20048;-66
2023/04/22 06:03:07;;;;;;;10.60;8.40;;;;;;;;;;5049197;28;20041;-66
2023/04/22 06:05:34;;;;;;;11.27;8.80;;;;;;;;;;5035140;28;20070;-66
2023/04/22 06:07:59;;;;;;;10.65;9.15;;;;;;;;;;5051872;28;20036;-64
2023/04/22 06:10:25;;;;;;;9.80;8.80;;;;;;;;;;5031645;28;20072;-66
2023/04/22 06:12:52;;;;;;;9.88;8.85;;;;;;;;;;5050521;28;20032;-65
2023/04/22 06:15:17;;;;;;;9.30;8.43;;;;;;;;;;5052051;28;20033;-65
2023/04/22 06:17:44;;;;;;;10.65;9.18;;;;;;;;;;5035364;28;20041;-65
2023/04/22 06:20:10;;;;;;;11.35;8.73;;;;;;;;;;5050233;28;20122;-66
2023/04/22 06:22:36;;;;;;;9.57;8.57;;;;;;;;;;5034225;28;20519;-65
2023/04/22 06:25:02;;;;;;;9.48;8.48;;;;;;;;;;5048460;28;20036;-66
2023/04/22 06:27:27;;;;;;;9.35;8.45;;;;;;;;;;5048378;28;20048;-65
2023/04/22 06:29:53;;;;;;;12.70;9.18;;;;;;;;;;5051296;28;20246;-65
2023/04/22 06:32:19;;;;;;;11.63;8.00;;;;;;;;;;5049266;28;20037;-66
2023/04/22 06:34:44;;;;;;;9.07;8.18;;;;;;;;;;5052352;28;20111;-65
2023/04/22 06:37:10;;;;;;;8.98;7.80;;;;;;;;;;5051857;28;20475;-64
2023/04/22 06:39:38;;;;;;;10.40;7.10;;;;;;;;;;5052284;28;20033;-64
2023/04/22 06:42:27;;;;;;;10.27;7.35;;;;;;;;;;5026187;28;20048;-64
2023/04/22 06:45:11;;;;;;;8.20;6.72;;;;;;;;;;5045233;28;20120;-64
2023/04/22 06:47:59;;;;;;;8.02;7.22;;;;;;;;;;5050580;28;20039;-65
2023/04/22 06:50:41;;;;;;;8.00;7.15;;;;;;;;;;5047374;28;20059;-66
2023/04/22 06:53:08;;;;;;;9.07;7.28;;;;;;;;;;5048869;28;20037;-66
2023/04/22 06:55:35;;;;;;;7.82;7.13;;;;;;;;;;5049818;28;20037;-66
2023/04/22 06:58:00;;;;;;;10.55;7.60;;;;;;;;;;5049870;28;20033;-66
2023/04/22 07:00:27;;;;;;;9.73;7.28;;;;;;;;;;5048529;28;20032;-65
2023/04/22 07:02:53;;;;;;;7.95;7.25;;;;;;;;;;5046430;28;20035;-65
2023/04/22 07:05:19;;;;;;;8.23;7.38;;;;;;;;;;5047744;28;20033;-65
2023/04/22 07:07:45;;;;;;;11.30;8.00;;;;;;;;;;5049885;28;20040;-65
2023/04/22 07:10:16;;;;;;;9.43;7.60;;;;;;;;;;5048004;28;20044;-65
2023/04/22 07:12:54;;;;;;;8.43;7.38;;;;;;;;;;5046802;28;20041;-65
2023/04/22 07:15:20;;;;;;;8.00;7.20;;;;;;;;;;5051489;28;20064;-66
2023/04/22 07:17:45;;;;;;;8.68;7.72;;;;;;;;;;5052226;28;20064;-66
2023/04/22 07:20:11;;;;;;;8.50;7.10;;;;;;;;;;5045638;28;20029;-66
2023/04/22 07:22:36;;;;;;;9.05;7.60;;;;;;;;;;5049102;28;20043;-66
2023/04/22 07:25:03;;;;;;;8.23;7.43;;;;;;;;;;5050522;28;20048;-66
2023/04/22 07:27:29;;;;;;;8.82;7.75;;;;;;;;;;5055154;28;20047;-66
2023/04/22 07:29:54;;;;;;;8.02;7.03;;;;;;;;;;5051776;28;20528;-65
2023/04/22 07:32:20;;;;;;;7.78;6.97;;;;;;;;;;5053288;28;20066;-66
2023/04/22 07:34:45;;;;;;;11.55;7.18;;;;;;;;;;5052604;28;20090;-66
2023/04/22 07:37:11;;;;;;;8.00;6.80;;;;;;;;;;5050012;28;20041;-65
2023/04/22 07:39:37;;;;;;;7.50;6.80;;;;;;;;;;5049177;28;20041;-66
2023/04/22 07:42:02;;;;;;;7.60;6.88;;;;;;;;;;5049904;28;20051;-66
2023/04/22 07:44:28;;;;;;;9.10;7.20;;;;;;;;;;5049955;28;20132;-66
2023/04/22 07:46:54;;;;;;;10.75;7.45;;;;;;;;;;5048326;28;20032;-66
2023/04/22 07:49:20;;;;;;;8.13;7.28;;;;;;;;;;5053260;28;20098;-66
2023/04/22 07:51:45;;;;;;;8.07;7.28;;;;;;;;;;5050415;28;20044;-66
2023/04/22 07:54:11;;;;;;;7.85;7.05;;;;;;;;;;5047015;28;20055;-66
2023/04/22 07:56:37;;;;;;;9.68;6.95;;;;;;;;;;5048318;28;20036;-66
2023/04/22 07:59:02;;;;;;;7.72;6.80;;;;;;;;;;5050703;28;20055;-66
2023/04/22 08:01:28;;;;;;;6.72;6.20;;;;;;;;;;5053189;28;20041;-65
2023/04/22 08:03:55;;;;;;;8.82;6.65;;;;;;;;;;5047162;28;20036;-64
2023/04/22 08:06:21;;;;;;;6.88;6.28;;;;;;;;;;5055208;28;20044;-66
2023/04/22 08:08:47;;;;;;;9.05;6.63;;;;;;;;;;5054014;28;20099;-66
2023/04/22 08:11:12;;;;;;;7.35;6.60;;;;;;;;;;5052258;28;20052;-68
2023/04/22 08:13:38;;;;;;;7.13;6.43;;;;;;;;;;5046112;28;20132;-66
2023/04/22 08:16:06;;;;;;;9.43;6.63;;;;;;;;;;5045799;28;20037;-65
2023/04/22 08:18:31;;;;;;;6.68;5.78;;;;;;;;;;5053508;28;20044;-65
2023/04/22 08:20:57;;;;;;;6.82;6.22;;;;;;;;;;5049358;28;20374;-64
2023/04/22 08:23:24;;;;;;;8.55;6.35;;;;;;;;;;5042280;28;20064;-65
2023/04/22 08:25:50;;;;;;;7.63;6.07;;;;;;;;;;5047942;28;20029;-65
2023/04/22 08:28:15;;;;;;;6.20;5.65;;;;;;;;;;5047939;28;20446;-65
2023/04/22 08:30:41;;;;;;;6.70;6.10;;;;;;;;;;5043208;28;20032;-65
2023/04/22 08:33:06;;;;;;;8.73;6.35;;;;;;;;;;5047430;28;20578;-65
2023/04/22 08:35:35;;;;;;;6.35;5.75;;;;;;;;;;5048845;28;20102;-65
2023/04/22 08:38:01;;;;;;;6.45;5.85;;;;;;;;;;5048132;28;20024;-66
2023/04/22 08:40:27;;;;;;;7.00;6.40;;;;;;;;;;5047190;28;20124;-66
2023/04/22 08:42:54;;;;;;;6.53;6.03;;;;;;;;;;5048837;28;20037;-66
2023/04/22 08:45:21;;;;;;;6.65;6.05;;;;;;;;;;5050930;28;20035;-66
2023/04/22 08:47:48;;;;;;;5.88;5.40;;;;;;;;;;5046138;28;20613;-66
2023/04/22 08:50:13;;;;;;;5.90;5.38;;;;;;;;;;5043815;28;20139;-66
2023/04/22 08:52:41;;;;;;;5.35;4.95;;;;;;;;;;5054778;28;20544;-67
2023/04/22 08:55:07;;;;;;;6.25;5.30;;;;;;;;;;5046883;28;20503;-66
2023/04/22 08:57:35;;;;;;;6.68;5.20;;;;;;;;;;5042510;28;20037;-67
2023/04/22 09:00:02;;;;;;;5.90;5.30;;;;;;;;;;5049481;28;20119;-67
2023/04/22 09:02:31;;;;;;;5.70;5.20;;;;;;;;;;5047247;28;20040;-66
2023/04/22 09:04:57;;;;;;;6.30;5.55;;;;;;;;;;5041475;28;20091;-66
2023/04/22 09:07:26;;;;;;;5.20;4.70;;;;;;;;;;5044905;28;20029;-66
2023/04/22 09:09:53;;;;;;;5.65;5.05;;;;;;;;;;5044524;28;20575;-66
2023/04/22 09:12:19;;;;;;;5.80;5.15;;;;;;;;;;5039791;28;20036;-67
2023/04/22 09:14:44;;;;;;;7.28;4.80;;;;;;;;;;5046072;28;20037;-66
2023/04/22 09:17:10;;;;;;;5.60;5.10;;;;;;;;;;5044713;28;20119;-67
2023/04/22 09:19:36;;;;;;;6.15;5.55;;;;;;;;;;5043750;28;20040;-67
2023/04/22 09:22:01;;;;;;;8.52;5.05;;;;;;;;;;5042976;28;20480;-67
2023/04/22 09:24:28;;;;;;;8.13;5.18;;;;;;;;;;5041010;28;20049;-67
2023/04/22 09:26:56;;;;;;;5.78;4.78;;;;;;;;;;5044120;28;20029;-66
2023/04/22 09:29:28;;;;;;;5.28;4.35;;;;;;;;;;5042828;28;20037;-66
2023/04/22 09:31:53;;;;;;;4.72;4.32;;;;;;;;;;5046395;28;20296;-67
2023/04/22 09:34:20;;;;;;;4.78;4.38;;;;;;;;;;5049695;28;20369;-67
2023/04/22 09:36:49;;;;;;;4.70;4.30;;;;;;;;;;5048752;28;20516;-66
2023/04/22 09:39:15;;;;;;;5.32;4.93;;;;;;;;;;5040451;28;20228;-67
2023/04/22 09:41:40;;;;;;;4.97;4.45;;;;;;;;;;5046333;28;20033;-67
2023/04/22 09:44:19;;;;;;;4.75;4.35;;;;;;;;;;5047345;28;20040;-67
2023/04/22 09:46:48;;;;;;;4.85;4.55;;;;;;;;;;5048225;28;20048;-67
2023/04/22 09:49:15;;;;;;;5.25;4.75;;;;;;;;;;5047247;28;20033;-67
2023/04/22 09:51:41;;;;;;;5.03;4.60;;;;;;;;;;5046918;28;20133;-67
2023/04/22 09:54:09;;;;;;;4.90;4.50;;;;;;;;;;5053187;28;20119;-67
2023/04/22 09:56:51;;;;;;;5.10;4.60;;;;;;;;;;5046090;28;20368;-66
2023/04/22 09:59:27;;;;;;;5.30;4.63;;;;;;;;;;5042951;28;20040;-67
2023/04/22 10:01:57;;;;;;;6.97;4.72;;;;;;;;;;5045462;28;20037;-67
2023/04/22 10:04:24;;;;;;;6.30;5.07;;;;;;;;;;5048311;28;20128;-67
2023/04/22 10:06:51;;;;;;;4.20;3.90;;;;;;;;;;5043569;28;20045;-67
2023/04/22 10:09:19;;;;;;;4.82;4.47;;;;;;;;;;5044958;28;20044;-66
2023/04/22 10:11:45;;;;;;;4.50;4.10;;;;;;;;;;5049616;28;20033;-66
2023/04/22 10:14:12;;;;;;;5.38;4.22;;;;;;;;;;5047280;28;20116;-66
2023/04/22 10:16:40;;;;;;;5.18;4.18;;;;;;;;;;5041594;28;20412;-66
2023/04/22 10:19:12;;;;;;;4.72;4.32;;;;;;;;;;5047910;28;20028;-66
2023/04/22 10:21:41;;;;;;;5.22;4.03;;;;;;;;;;5047444;28;20069;-66
2023/04/22 10:24:15;;;;;;;3.90;3.60;;;;;;;;;;5044231;28;20477;-66
2023/04/22 10:26:58;;;;;;;4.80;4.30;;;;;;;;;;5039226;28;20029;-66
2023/04/22 10:29:26;;;;;;;4.38;3.88;;;;;;;;;;5042306;28;20044;-66
2023/04/22 10:32:04;;;;;;;5.32;4.10;;;;;;;;;;5046948;28;20140;-66
2023/04/22 10:34:31;;;;;;;4.80;4.18;;;;;;;;;;5046186;28;20041;-66
2023/04/22 10:37:04;;;;;;;4.18;3.80;;;;;;;;;;5052387;28;20033;-66
2023/04/22 10:39:30;;;;;;;6.65;4.40;;;;;;;;;;5055670;28;20576;-66
2023/04/22 10:42:10;;;;;;;6.68;4.43;;;;;;;;;;5048911;28;20055;-66
2023/04/22 10:44:52;;;;;;;5.05;4.22;;;;;;;;;;5055557;28;20033;-66
2023/04/22 10:47:35;;;;;;;3.80;3.50;;;;;;;;;;5050041;28;20043;-66
2023/04/22 10:50:15;;;;;;;4.63;3.70;;;;;;;;;;5051776;28;20393;-66
2023/04/22 10:52:42;;;;;;;4.88;3.75;;;;;;;;;;5054566;28;20288;-66
2023/04/22 10:55:08;;;;;;;7.10;4.30;;;;;;;;;;5054181;28;20033;-66
2023/04/22 10:57:40;;;;;;;5.28;3.85;;;;;;;;;;5046100;28;20045;-66
2023/04/22 11:00:28;;;;;;;4.35;3.95;;;;;;;;;;5052883;28;20114;-66
2023/04/22 11:03:09;;;;;;;8.63;4.55;;;;;;;;;;5054136;28;20086;-66
2023/04/22 11:05:35;;;;;;;4.32;3.35;;;;;;;;;;5051853;28;20079;-66
2023/04/22 11:08:07;;;;;;;4.07;3.70;;;;;;;;;;5048241;28;20128;-66
2023/04/22 11:10:44;;;;;;;5.18;3.95;;;;;;;;;;5054240;28;20044;-66
2023/04/22 11:13:13;;;;;;;6.80;3.45;;;;;;;;;;5049836;28;20041;-66
2023/04/22 11:15:40;;;;;;;3.97;3.67;;;;;;;;;;5051919;28;20025;-66
2023/04/22 11:18:12;;;;;;;5.35;3.50;;;;;;;;;;5054307;28;20055;-68
2023/04/22 11:20:38;;;;;;;5.53;4.32;;;;;;;;;;5051313;28;20039;-67
2023/04/22 11:23:04;;;;;;;4.10;3.70;;;;;;;;;;5048133;28;20496;-66
2023/04/22 11:25:29;;;;;;;6.65;3.92;;;;;;;;;;5054122;28;20041;-66
2023/04/22 11:27:55;;;;;;;4.47;3.72;;;;;;;;;;5054893;28;20036;-66
2023/04/22 11:30:23;;;;;;;3.60;3.30;;;;;;;;;;5034463;28;20075;-66
2023/04/22 11:32:51;;;;;;;3.80;3.50;;;;;;;;;;5051901;28;20045;-66
2023/04/22 11:35:22;;;;;;;4.63;3.30;;;;;;;;;;5058928;28;20477;-66
2023/04/22 11:38:05;;;;;;;4.32;3.55;;;;;;;;;;5052073;28;20041;-67
2023/04/22 11:40:38;;;;;;;3.45;3.22;;;;;;;;;;5052142;28;20036;-66
2023/04/22 11:43:05;;;;;;;3.80;3.50;;;;;;;;;;5055655;28;20081;-66
2023/04/22 11:45:32;;;;;;;4.22;3.60;;;;;;;;;;5053145;28;20034;-66
2023/04/22 11:47:59;;;;;;;5.53;3.75;;;;;;;;;;5052562;28;20047;-63
2023/04/22 11:50:28;;;;;;;3.80;3.47;;;;;;;;;;5051657;28;20037;-66
2023/04/22 11:52:54;;;;;;;6.95;3.67;;;;;;;;;;5048077;28;20059;-69
2023/04/22 11:55:21;;;;;;;4.20;3.88;;;;;;;;;;5045191;28;20566;-64
2023/04/22 11:57:58;;;;;;;7.60;3.80;;;;;;;;;;5044521;28;20086;-64
2023/04/22 12:00:31;;;;;;;4.20;3.80;;;;;;;;;;5033790;28;20040;-73
2023/04/22 12:03:02;;;;;;;4.30;3.90;;;;;;;;;;5046704;28;20503;-71
2023/04/22 12:05:35;;;;;;;4.93;4.10;;;;;;;;;;5041835;28;20040;-71
2023/04/22 12:08:03;;;;;;;4.07;3.70;;;;;;;;;;5050702;28;20423;-72
2023/04/22 12:10:29;;;;;;;7.15;4.15;;;;;;;;;;5049355;28;20576;-66
2023/04/22 12:12:54;;;;;;;5.13;4.03;;;;;;;;;;5048737;28;20563;-67
2023/04/22 12:15:20;;;;;;;6.00;3.63;;;;;;;;;;5050759;28;20032;-67
2023/04/22 12:17:49;;;;;;;4.10;3.70;;;;;;;;;;5057302;28;20032;-70
2023/04/22 12:20:14;;;;;;;4.38;3.85;;;;;;;;;;5051038;28;20029;-68
2023/04/22 12:22:40;;;;;;;6.57;3.75;;;;;;;;;;5056821;28;20207;-71
2023/04/22 12:25:06;;;;;;;4.18;3.88;;;;;;;;;;5038454;28;20028;-72
2023/04/22 12:27:31;;;;;;;4.95;4.20;;;;;;;;;;5073973;28;20076;-72
2023/04/22 12:29:57;;;;;;;5.18;3.70;;;;;;;;;;5055451;28;20024;-72
2023/04/22 12:32:25;;;;;;;6.47;4.18;;;;;;;;;;5046765;28;20029;-71
2023/04/22 12:34:51;;;;;;;6.38;4.03;;;;;;;;;;5053352;28;20033;-72
2023/04/22 12:37:17;;;;;;;5.90;4.10;;;;;;;;;;5055430;28;20115;-71
2023/04/22 12:39:43;;;;;;;4.65;3.72;;;;;;;;;;5057687;28;20035;-71
2023/04/22 12:42:09;;;;;;;4.72;3.90;;;;;;;;;;5059423;28;20058;-71
2023/04/22 12:44:35;;;;;;;4.88;3.70;;;;;;;;;;5054977;28;20041;-71
2023/04/22 12:47:01;;;;;;;5.28;3.70;;;;;;;;;;5055107;28;20041;-71
2023/04/22 12:49:26;;;;;;;4.72;4.07;;;;;;;;;;5038317;28;20514;-71
2023/04/22 12:51:52;;;;;;;7.93;4.57;;;;;;;;;;5055827;28;20032;-71
2023/04/22 12:54:18;;;;;;;4.28;3.97;;;;;;;;;;5059892;28;20033;-71
2023/04/22 12:56:45;;;;;;;8.35;3.50;;;;;;;;;;5057451;28;20094;-71
2023/04/22 12:59:11;;;;;;;4.13;3.70;;;;;;;;;;5055078;28;20032;-71
2023/04/22 13:01:37;;;;;;;5.00;3.75;;;;;;;;;;5052634;28;20044;-72
2023/04/22 13:04:03;;;;;;;4.03;3.50;;;;;;;;;;5048412;28;20022;-71
2023/04/22 13:06:30;;;;;;;4.00;3.60;;;;;;;;;;5055393;28;20036;-71
2023/04/22 13:08:55;;;;;;;5.55;3.67;;;;;;;;;;5051291;28;20032;-72
2023/04/22 13:11:23;;;;;;;4.05;3.47;;;;;;;;;;5050675;28;20077;-71
2023/04/22 13:13:49;;;;;;;3.78;3.47;;;;;;;;;;5052883;28;20044;-71
2023/04/22 13:16:15;;;;;;;4.25;3.95;;;;;;;;;;5053158;28;20037;-71
2023/04/22 13:18:41;;;;;;;4.15;3.85;;;;;;;;;;5052026;28;20036;-71
2023/04/22 13:21:07;;;;;;;5.85;3.83;;;;;;;;;;5051458;28;20037;-71
2023/04/22 13:23:32;;;;;;;4.53;3.72;;;;;;;;;;5058167;28;20029;-71
2023/04/22 13:25:58;;;;;;;5.65;3.92;;;;;;;;;;5055892;28;20029;-72
2023/04/22 13:28:24;;;;;;;4.93;3.90;;;;;;;;;;5054832;28;20040;-71
2023/04/22 13:30:50;;;;;;;4.30;3.90;;;;;;;;;;5059706;28;20033;-71
2023/04/22 13:33:16;;;;;;;3.90;3.60;;;;;;;;;;5067272;28;20587;-70
2023/04/22 13:35:42;;;;;;;4.05;3.75;;;;;;;;;;5065549;28;20044;-70
2023/04/22 13:38:08;;;;;;;4.90;3.63;;;;;;;;;;5069179;28;20032;-71
2023/04/22 13:40:34;;;;;;;4.28;3.95;;;;;;;;;;5048676;28;20060;-71
2023/04/22 13:42:59;;;;;;;6.40;3.90;;;;;;;;;;5029476;28;20040;-71
2023/04/22 13:45:25;;;;;;;8.15;4.20;;;;;;;;;;5048898;28;20707;-72
2023/04/22 13:47:52;;;;;;;4.15;3.85;;;;;;;;;;5048160;28;20037;-72
2023/04/22 13:50:18;;;;;;;5.28;4.10;;;;;;;;;;5048412;28;20037;-72
2023/04/22 13:52:44;;;;;;;4.03;3.70;;;;;;;;;;5043301;28;20024;-72
2023/04/22 13:55:09;;;;;;;5.18;3.60;;;;;;;;;;5046507;28;20130;-72
2023/04/22 13:57:35;;;;;;;4.88;4.10;;;;;;;;;;5046627;28;20033;-72
2023/04/22 14:00:00;;;;;;;5.60;4.10;;;;;;;;;;5039804;28;20033;-73
2023/04/22 14:02:26;;;;;;;5.45;4.10;;;;;;;;;;5044881;28;20044;-72
2023/04/22 14:04:52;;;;;;;5.28;4.10;;;;;;;;;;5047045;28;20051;-72
2023/04/22 14:07:17;;;;;;;4.40;4.00;;;;;;;;;;5047748;28;20029;-72
2023/04/22 14:09:43;;;;;;;6.60;4.00;;;;;;;;;;5048292;28;20198;-72
2023/04/22 14:12:11;;;;;;;4.70;4.32;;;;;;;;;;5053309;28;20396;-72
2023/04/22 14:14:36;;;;;;;5.80;4.30;;;;;;;;;;5053165;28;20041;-72
2023/04/22 14:17:02;;;;;;;8.02;4.30;;;;;;;;;;5046602;28;20428;-72
2023/04/22 14:19:29;;;;;;;6.80;4.50;;;;;;;;;;5049885;28;20035;-72
2023/04/22 14:21:55;;;;;;;4.65;3.78;;;;;;;;;;5049222;28;20033;-72
2023/04/22 14:24:22;;;;;;;7.78;4.20;;;;;;;;;;5053856;28;20029;-72
2023/04/22 14:26:50;;;;;;;4.78;3.88;;;;;;;;;;5052657;28;20430;-72
2023/04/22 14:29:16;;;;;;;4.30;4.00;;;;;;;;;;5052455;28;20032;-72
2023/04/22 14:31:42;;;;;;;7.10;4.20;;;;;;;;;;5055789;28;20086;-72
2023/04/22 14:34:08;;;;;;;6.25;4.90;;;;;;;;;;5054698;28;20020;-72
2023/04/22 14:36:34;;;;;;;6.68;4.78;;;;;;;;;;5054812;28;20033;-72